createdAt,value
2017-07-17T00:01:46.627Z,20.90
2017-07-17T00:04:14.234Z,20.90
2017-07-17T00:06:41.083Z,20.90
2017-07-17T00:09:07.999Z,20.90
2017-07-17T00:11:34.859Z,20.90
2017-07-17T00:14:01.708Z,20.90
2017-07-17T00:16:28.612Z,20.90
2017-07-17T00:18:55.456Z,20.90
2017-07-17T00:21:22.381Z,20.80
2017-07-17T00:23:49.225Z,20.90
2017-07-17T00:26:16.152Z,20.90
2017-07-17T00:28:42.991Z,20.90
2017-07-17T00:31:09.969Z,21.00
2017-07-17T00:33:37.122Z,20.90
2017-07-17T00:36:03.941Z,21.00
2017-07-17T00:38:30.841Z,21.00
2017-07-17T00:40:57.684Z,21.00
2017-07-17T00:43:24.586Z,21.00
2017-07-17T00:45:51.504Z,21.00
2017-07-17T00:48:18.337Z,21.10
2017-07-17T00:50:45.194Z,21.00
2017-07-17T00:53:12.125Z,21.00
2017-07-17T00:55:38.952Z,21.00
2017-07-17T00:58:05.782Z,21.00
2017-07-17T01:00:33.438Z,21.00
2017-07-17T01:03:00.259Z,21.00
2017-07-17T01:05:27.089Z,20.90
2017-07-17T01:07:53.989Z,20.90
2017-07-17T01:10:21.652Z,20.80
2017-07-17T01:12:48.496Z,20.80
2017-07-17T01:15:15.341Z,20.80
2017-07-17T01:17:42.264Z,20.80
2017-07-17T01:20:09.087Z,20.70
2017-07-17T01:22:35.927Z,20.70
2017-07-17T01:25:02.844Z,20.70
2017-07-17T01:27:29.730Z,20.70
2017-07-17T01:29:56.560Z,20.80
2017-07-17T01:32:23.452Z,20.70
2017-07-17T01:34:50.380Z,20.70
2017-07-17T01:37:17.956Z,20.60
2017-07-17T01:39:45.616Z,20.50
2017-07-17T01:42:13.404Z,20.40
2017-07-17T01:44:40.312Z,20.40
2017-07-17T01:47:08.049Z,20.30
2017-07-17T01:49:34.900Z,20.30
2017-07-17T01:52:01.722Z,20.30
2017-07-17T01:54:28.617Z,20.30
2017-07-17T01:56:56.268Z,20.20
2017-07-17T01:59:23.133Z,20.20
2017-07-17T02:01:50.775Z,20.20
2017-07-17T02:04:17.688Z,20.10
2017-07-17T02:06:44.622Z,20.10
2017-07-17T02:09:11.449Z,20.10
2017-07-17T02:11:38.400Z,20.00
2017-07-17T02:14:05.251Z,20.00
2017-07-17T02:16:32.111Z,20.00
2017-07-17T02:18:59.077Z,19.90
2017-07-17T02:21:26.048Z,19.90
2017-07-17T02:23:53.628Z,19.90
2017-07-17T02:26:20.478Z,19.90
2017-07-17T02:28:47.379Z,19.90
2017-07-17T02:31:14.200Z,19.90
2017-07-17T02:33:41.136Z,19.90
2017-07-17T02:36:07.993Z,19.90
2017-07-17T02:38:34.840Z,19.90
2017-07-17T02:41:01.748Z,19.90
2017-07-17T02:43:28.584Z,19.90
2017-07-17T02:45:55.430Z,19.80
2017-07-17T02:48:22.335Z,19.80
2017-07-17T02:50:49.301Z,19.60
2017-07-17T02:53:16.872Z,19.50
2017-07-17T02:55:43.782Z,19.50
2017-07-17T02:58:10.711Z,19.60
2017-07-17T03:00:37.622Z,19.60
2017-07-17T03:03:04.538Z,19.60
2017-07-17T03:05:32.099Z,19.60
2017-07-17T03:07:58.912Z,19.60
2017-07-17T03:10:25.843Z,19.70
2017-07-17T03:12:52.682Z,19.70
2017-07-17T03:15:19.511Z,19.80
2017-07-17T03:17:46.424Z,19.80
2017-07-17T03:20:13.994Z,19.80
2017-07-17T03:22:41.587Z,19.90
2017-07-17T03:25:08.513Z,19.90
2017-07-17T03:27:35.357Z,19.90
2017-07-17T03:30:02.345Z,19.90
2017-07-17T03:32:29.167Z,20.00
2017-07-17T03:34:56.009Z,19.90
2017-07-17T03:37:22.918Z,19.80
2017-07-17T03:39:50.590Z,19.90
2017-07-17T03:42:18.185Z,19.90
2017-07-17T03:44:45.020Z,19.90
2017-07-17T03:47:11.935Z,19.90
2017-07-17T03:49:39.528Z,19.90
2017-07-17T03:52:06.457Z,19.90
2017-07-17T03:54:33.277Z,19.90
2017-07-17T03:57:00.867Z,19.90
2017-07-17T03:59:27.771Z,19.90
2017-07-17T04:01:54.674Z,20.00
2017-07-17T04:04:21.533Z,20.00
2017-07-17T04:06:48.531Z,20.00
2017-07-17T04:09:16.142Z,20.10
2017-07-17T04:11:42.978Z,20.10
2017-07-17T04:14:09.879Z,20.10
2017-07-17T04:16:37.512Z,20.10
2017-07-17T04:19:04.407Z,20.10
2017-07-17T04:21:31.257Z,20.10
2017-07-17T04:23:58.091Z,20.10
2017-07-17T04:26:25.123Z,20.20
2017-07-17T04:28:52.736Z,20.20
2017-07-17T04:31:19.589Z,20.20
2017-07-17T04:33:46.519Z,20.30
2017-07-17T04:36:13.350Z,20.40
2017-07-17T04:38:40.209Z,20.50
2017-07-17T04:41:07.127Z,20.50
2017-07-17T04:43:33.971Z,20.60
2017-07-17T04:46:00.810Z,20.60
2017-07-17T04:48:27.752Z,20.60
2017-07-17T04:50:55.315Z,20.60
2017-07-17T04:53:22.139Z,20.60
2017-07-17T04:55:49.105Z,20.70
2017-07-17T04:58:15.952Z,20.70
2017-07-17T05:00:43.936Z,20.70
2017-07-17T05:03:10.763Z,20.80
2017-07-17T05:05:37.755Z,20.80
2017-07-17T05:08:04.588Z,20.80
2017-07-17T05:10:31.436Z,20.90
2017-07-17T05:12:58.363Z,20.90
2017-07-17T05:15:25.197Z,20.80
2017-07-17T05:17:52.020Z,20.90
2017-07-17T05:20:19.701Z,21.00
2017-07-17T05:22:46.535Z,21.00
2017-07-17T05:25:14.155Z,21.30
2017-07-17T05:27:41.153Z,21.20
2017-07-17T05:30:08.048Z,21.40
2017-07-17T05:32:34.964Z,21.40
2017-07-17T05:35:01.875Z,21.50
2017-07-17T05:37:29.470Z,21.50
2017-07-17T05:39:56.411Z,21.50
2017-07-17T05:42:23.255Z,21.50
2017-07-17T05:44:50.095Z,21.60
2017-07-17T05:47:16.977Z,21.70
2017-07-17T05:49:43.887Z,21.80
2017-07-17T05:52:10.718Z,21.90
2017-07-17T05:54:37.614Z,21.90
2017-07-17T05:57:04.483Z,21.90
2017-07-17T05:59:32.073Z,21.90
2017-07-17T06:01:59.622Z,22.00
2017-07-17T06:04:26.492Z,22.10
2017-07-17T06:06:53.745Z,22.10
2017-07-17T06:09:20.659Z,22.10
2017-07-17T06:11:48.276Z,22.10
2017-07-17T06:14:15.136Z,22.10
2017-07-17T06:16:42.085Z,22.00
2017-07-17T06:19:08.912Z,22.10
2017-07-17T06:21:35.755Z,22.10
2017-07-17T06:24:02.664Z,22.30
2017-07-17T06:26:29.507Z,22.50
2017-07-17T06:28:56.359Z,22.70
2017-07-17T06:31:23.272Z,22.90
2017-07-17T06:33:50.133Z,23.20
2017-07-17T06:36:16.987Z,23.50
2017-07-17T06:38:44.051Z,23.50
2017-07-17T06:41:10.888Z,23.40
2017-07-17T06:43:37.986Z,23.40
2017-07-17T06:46:04.984Z,23.30
2017-07-17T06:48:31.798Z,23.30
2017-07-17T06:50:59.551Z,23.10
2017-07-17T06:53:27.172Z,23.00
2017-07-17T06:55:54.024Z,23.00
2017-07-17T06:58:20.967Z,22.90
2017-07-17T07:00:47.820Z,22.90
2017-07-17T07:03:14.656Z,22.90
2017-07-17T07:05:41.550Z,22.90
2017-07-17T07:08:12.557Z,23.10
2017-07-17T07:10:47.581Z,23.00
2017-07-17T07:13:18.203Z,23.00
2017-07-17T07:15:47.705Z,23.00
2017-07-17T07:18:14.543Z,23.00
2017-07-17T07:20:44.973Z,23.10
2017-07-17T07:23:12.270Z,23.10
2017-07-17T07:25:39.272Z,23.10
2017-07-17T07:28:06.224Z,22.80
2017-07-17T07:30:35.973Z,23.10
2017-07-17T07:33:07.307Z,23.20
2017-07-17T07:35:34.303Z,23.20
2017-07-17T07:38:01.199Z,23.20
2017-07-17T07:40:30.530Z,23.20
2017-07-17T07:43:01.483Z,23.60
2017-07-17T07:45:28.825Z,23.60
2017-07-17T07:47:56.424Z,23.80
2017-07-17T07:50:23.320Z,23.80
2017-07-17T07:52:52.257Z,24.00
2017-07-17T07:55:21.275Z,24.00
2017-07-17T07:57:48.197Z,23.80
2017-07-17T08:00:24.782Z,24.40
2017-07-17T08:02:51.802Z,24.50
2017-07-17T08:05:18.651Z,24.80
2017-07-17T08:07:45.569Z,24.80
2017-07-17T08:10:12.484Z,24.80
2017-07-17T08:12:39.483Z,25.40
2017-07-17T08:15:07.043Z,26.00
2017-07-17T08:17:33.937Z,26.00
2017-07-17T08:20:00.828Z,27.20
2017-07-17T08:22:27.650Z,28.20
2017-07-17T08:24:54.459Z,28.50
2017-07-17T08:27:21.350Z,29.20
2017-07-17T08:29:48.912Z,30.30
2017-07-17T08:32:16.489Z,30.40
2017-07-17T08:34:43.401Z,30.40
2017-07-17T08:37:10.237Z,30.20
2017-07-17T08:39:37.124Z,29.30
2017-07-17T08:42:03.938Z,29.30
2017-07-17T08:44:30.761Z,29.70
2017-07-17T08:46:57.721Z,29.70
2017-07-17T08:49:27.400Z,30.20
2017-07-17T08:51:54.296Z,30.50
2017-07-17T08:54:21.873Z,30.80
2017-07-17T08:56:49.530Z,31.30
2017-07-17T08:59:17.122Z,31.60
2017-07-17T09:01:45.044Z,30.40
2017-07-17T09:04:14.762Z,30.40
2017-07-17T09:06:44.850Z,31.00
2017-07-17T09:09:13.156Z,30.70
2017-07-17T09:11:40.722Z,30.10
2017-07-17T09:14:13.841Z,30.00
2017-07-17T09:16:41.803Z,29.80
2017-07-17T09:19:08.628Z,29.70
2017-07-17T09:21:35.528Z,29.20
2017-07-17T09:24:02.409Z,30.10
2017-07-17T09:26:37.334Z,29.80
2017-07-17T09:29:04.173Z,30.20
2017-07-17T09:31:31.008Z,30.70
2017-07-17T09:33:57.972Z,30.70
2017-07-17T09:36:24.815Z,31.00
2017-07-17T09:38:51.721Z,30.40
2017-07-17T09:41:21.348Z,30.20
2017-07-17T09:43:48.786Z,30.10
2017-07-17T09:46:15.632Z,29.60
2017-07-17T09:48:42.652Z,29.50
2017-07-17T09:51:09.564Z,29.80
2017-07-17T09:53:36.419Z,30.40
2017-07-17T09:56:04.008Z,31.30
2017-07-17T09:58:30.949Z,31.20
2017-07-17T10:00:57.801Z,31.60
2017-07-17T10:03:24.750Z,31.60
2017-07-17T10:05:51.813Z,32.30
2017-07-17T10:08:18.786Z,32.80
2017-07-17T10:10:45.741Z,32.30
2017-07-17T10:13:12.753Z,31.70
2017-07-17T10:15:39.646Z,31.20
2017-07-17T10:18:06.488Z,30.20
2017-07-17T10:20:33.319Z,29.80
2017-07-17T10:23:00.239Z,29.50
2017-07-17T10:25:27.217Z,29.40
2017-07-17T10:27:54.294Z,29.80
2017-07-17T10:30:21.269Z,30.00
2017-07-17T10:32:48.196Z,30.40
2017-07-17T10:35:15.160Z,30.50
2017-07-17T10:37:41.969Z,30.70
2017-07-17T10:40:09.553Z,30.60
2017-07-17T10:42:36.475Z,30.60
2017-07-17T10:45:04.059Z,31.30
2017-07-17T10:47:30.897Z,31.30
2017-07-17T10:49:57.968Z,31.20
2017-07-17T10:52:25.013Z,31.40
2017-07-17T10:54:51.974Z,31.50
2017-07-17T10:57:18.940Z,31.50
2017-07-17T10:59:45.853Z,31.40
2017-07-17T11:02:12.773Z,31.30
2017-07-17T11:04:40.340Z,30.70
2017-07-17T11:07:07.185Z,30.70
2017-07-17T11:09:34.140Z,31.00
2017-07-17T11:12:00.989Z,31.50
2017-07-17T11:14:27.870Z,31.80
2017-07-17T11:16:54.776Z,32.30
2017-07-17T11:19:21.620Z,32.80
2017-07-17T11:21:48.450Z,33.30
2017-07-17T11:24:15.330Z,33.00
2017-07-17T11:26:42.171Z,32.80
2017-07-17T11:29:09.074Z,31.30
2017-07-17T11:31:36.752Z,32.00
2017-07-17T11:34:03.740Z,31.90
2017-07-17T11:36:30.793Z,31.80
2017-07-17T11:38:57.753Z,31.70
2017-07-17T11:41:24.596Z,31.90
2017-07-17T11:43:51.520Z,31.90
2017-07-17T11:56:27.956Z,30.80
2017-07-17T11:58:54.991Z,30.10
2017-07-17T12:01:21.947Z,29.70
2017-07-17T12:03:48.788Z,29.40
2017-07-17T12:06:15.708Z,29.20
2017-07-17T12:08:42.612Z,28.80
2017-07-17T12:11:09.568Z,28.80
2017-07-17T12:13:36.408Z,28.70
2017-07-17T12:16:03.230Z,28.70
2017-07-17T12:18:30.311Z,28.70
2017-07-17T12:20:57.994Z,28.60
2017-07-17T12:23:24.935Z,28.60
2017-07-17T12:25:51.982Z,28.70
2017-07-17T12:28:18.830Z,28.80
2017-07-17T12:30:46.421Z,27.90
2017-07-17T12:33:13.331Z,27.90
2017-07-17T12:35:40.904Z,28.10
2017-07-17T12:38:07.777Z,28.20
2017-07-17T12:40:34.671Z,28.50
2017-07-17T12:43:02.264Z,29.40
2017-07-17T12:45:29.097Z,29.40
2017-07-17T12:47:56.000Z,29.60
2017-07-17T12:50:22.897Z,29.70
2017-07-17T12:52:49.722Z,29.70
2017-07-17T12:55:17.422Z,29.60
2017-07-17T12:57:44.576Z,29.60
2017-07-17T13:00:11.530Z,29.20
2017-07-17T13:02:38.482Z,29.50
2017-07-17T13:05:05.399Z,29.50
2017-07-17T13:07:32.227Z,29.40
2017-07-17T13:09:59.144Z,29.40
2017-07-17T13:12:25.978Z,29.70
2017-07-17T13:14:52.837Z,29.90
2017-07-17T13:17:19.719Z,30.10
2017-07-17T13:19:46.603Z,29.00
2017-07-17T13:22:13.436Z,29.60
2017-07-17T13:24:40.267Z,29.90
2017-07-17T13:27:07.175Z,29.70
2017-07-17T13:29:34.744Z,29.30
2017-07-17T13:32:01.558Z,29.30
2017-07-17T13:34:29.240Z,28.80
2017-07-17T13:36:56.822Z,28.70
2017-07-17T13:39:23.689Z,28.80
2017-07-17T13:41:50.590Z,28.90
2017-07-17T13:44:18.157Z,29.10
2017-07-17T13:46:45.785Z,29.00
2017-07-17T13:49:12.688Z,29.10
2017-07-17T13:51:39.581Z,29.10
2017-07-17T13:54:06.419Z,29.40
2017-07-17T13:56:33.313Z,29.30
2017-07-17T13:59:00.215Z,29.30
2017-07-17T14:01:27.043Z,29.50
2017-07-17T14:03:54.082Z,28.90
2017-07-17T14:06:20.930Z,29.20
2017-07-17T14:08:47.934Z,29.10
2017-07-17T14:11:14.780Z,29.50
2017-07-17T14:13:41.605Z,29.80
2017-07-17T14:16:09.291Z,30.20
2017-07-17T14:18:36.121Z,30.20
2017-07-17T14:21:02.948Z,30.20
2017-07-17T14:23:29.850Z,30.00
2017-07-17T14:25:56.675Z,29.90
2017-07-17T14:28:23.509Z,30.10
2017-07-17T14:30:50.404Z,30.10
2017-07-17T14:33:17.241Z,30.00
2017-07-17T14:35:44.091Z,29.90
2017-07-17T14:38:10.997Z,29.90
2017-07-17T14:40:37.823Z,30.10
2017-07-17T14:43:04.648Z,30.30
2017-07-17T14:45:32.339Z,29.90
2017-07-17T14:47:59.169Z,29.90
2017-07-17T14:50:26.006Z,29.40
2017-07-17T14:52:52.996Z,29.20
2017-07-17T14:55:19.925Z,29.10
2017-07-17T14:57:46.748Z,29.40
2017-07-17T15:00:13.657Z,29.40
2017-07-17T15:02:40.568Z,29.40
2017-07-17T15:05:07.411Z,29.30
2017-07-17T15:07:34.283Z,29.40
2017-07-17T15:10:01.189Z,29.30
2017-07-17T15:12:28.015Z,29.20
2017-07-17T15:14:54.853Z,29.20
2017-07-17T15:17:22.604Z,28.90
2017-07-17T15:19:49.464Z,28.90
2017-07-17T15:22:17.040Z,28.80
2017-07-17T15:24:43.975Z,28.80
2017-07-17T15:27:11.520Z,28.60
2017-07-17T15:29:39.103Z,28.60
2017-07-17T15:32:06.003Z,28.60
2017-07-17T15:34:32.828Z,28.30
2017-07-17T15:36:59.664Z,28.50
2017-07-17T15:39:26.579Z,28.70
2017-07-17T15:41:53.404Z,28.60
2017-07-17T15:44:20.975Z,28.70
2017-07-17T15:46:47.871Z,28.70
2017-07-17T15:49:14.717Z,28.50
2017-07-17T15:51:41.559Z,28.50
2017-07-17T15:54:08.461Z,28.40
2017-07-17T15:56:35.348Z,28.20
2017-07-17T15:59:02.301Z,28.10
2017-07-17T16:01:29.275Z,28.10
2017-07-17T16:03:56.088Z,28.10
2017-07-17T16:06:22.930Z,28.40
2017-07-17T16:08:49.832Z,28.20
2017-07-17T16:11:16.678Z,28.30
2017-07-17T16:13:43.512Z,28.30
2017-07-17T16:16:11.171Z,28.30
2017-07-17T16:18:38.744Z,28.30
2017-07-17T16:21:05.565Z,28.30
2017-07-17T16:23:32.484Z,28.40
2017-07-17T16:25:59.299Z,28.10
2017-07-17T16:28:26.134Z,28.20
2017-07-17T16:30:53.048Z,28.10
2017-07-17T16:33:20.612Z,27.90
2017-07-17T16:35:48.178Z,27.80
2017-07-17T16:38:15.854Z,27.80
2017-07-17T16:40:42.696Z,27.70
2017-07-17T16:43:09.539Z,27.60
2017-07-17T16:45:36.457Z,27.70
2017-07-17T16:48:03.305Z,27.60
2017-07-17T16:50:30.193Z,27.50
2017-07-17T16:52:57.031Z,27.50
2017-07-17T16:55:23.877Z,27.50
2017-07-17T16:57:50.775Z,27.40
2017-07-17T17:00:17.752Z,27.50
2017-07-17T17:02:44.586Z,27.50
2017-07-17T17:05:12.154Z,27.70
2017-07-17T17:07:39.823Z,27.50
2017-07-17T17:10:06.675Z,27.50
2017-07-17T17:12:33.504Z,27.50
2017-07-17T17:15:01.181Z,27.70
2017-07-17T17:17:28.083Z,27.60
2017-07-17T17:19:55.033Z,27.70
2017-07-17T17:22:22.694Z,27.70
2017-07-17T17:24:49.568Z,27.70
2017-07-17T17:27:16.477Z,27.70
2017-07-17T17:29:43.312Z,27.50
2017-07-17T17:32:10.161Z,27.50
2017-07-17T17:34:37.048Z,27.40
2017-07-17T17:37:03.889Z,27.10
2017-07-17T17:39:30.719Z,27.20
2017-07-17T17:41:57.608Z,27.10
2017-07-17T17:44:24.432Z,26.80
2017-07-17T17:46:51.264Z,26.90
2017-07-17T17:49:18.155Z,26.60
2017-07-17T17:51:45.000Z,26.70
2017-07-17T17:54:11.824Z,26.50
2017-07-17T17:56:38.810Z,26.40
2017-07-17T17:59:05.832Z,26.40
2017-07-17T18:01:32.660Z,26.40
2017-07-17T18:03:59.585Z,26.40
2017-07-17T18:06:26.429Z,26.40
2017-07-17T18:08:53.256Z,26.30
2017-07-17T18:11:20.889Z,26.30
2017-07-17T18:13:47.741Z,26.30
2017-07-17T18:16:14.593Z,26.30
2017-07-17T18:18:41.488Z,26.20
2017-07-17T18:21:08.309Z,26.00
2017-07-17T18:23:35.222Z,25.90
2017-07-17T18:26:02.069Z,25.80
2017-07-17T18:28:28.904Z,25.80
2017-07-17T18:30:55.809Z,25.70
2017-07-17T18:33:22.629Z,25.70
2017-07-17T18:35:49.453Z,25.70
2017-07-17T18:38:17.100Z,25.60
2017-07-17T18:40:43.932Z,25.60
2017-07-17T18:43:10.744Z,25.60
2017-07-17T18:45:37.646Z,25.60
2017-07-17T18:48:04.479Z,25.40
2017-07-17T18:50:31.333Z,25.40
2017-07-17T18:52:59.019Z,25.20
2017-07-17T18:55:25.836Z,25.20
2017-07-17T18:57:53.107Z,25.20
2017-07-17T19:00:20.746Z,25.20
2017-07-17T19:02:49.572Z,25.20
2017-07-17T19:05:16.424Z,25.20
2017-07-17T19:07:43.332Z,25.10
2017-07-17T19:10:13.753Z,25.00
2017-07-17T19:12:40.956Z,25.00
2017-07-17T19:15:08.650Z,25.00
2017-07-17T19:17:35.490Z,24.90
2017-07-17T19:20:02.321Z,24.90
2017-07-17T19:22:29.213Z,24.80
2017-07-17T19:24:56.871Z,24.80
2017-07-17T19:27:23.720Z,24.80
2017-07-17T19:29:50.575Z,24.80
2017-07-17T19:32:17.493Z,24.70
2017-07-17T19:34:44.315Z,24.70
2017-07-17T19:37:11.166Z,24.60
2017-07-17T19:39:40.302Z,24.60
2017-07-17T19:42:07.282Z,24.40
2017-07-17T19:44:34.262Z,24.40
2017-07-17T19:47:01.316Z,24.40
2017-07-17T19:49:28.162Z,24.30
2017-07-17T19:51:55.020Z,24.30
2017-07-17T19:54:21.962Z,24.20
2017-07-17T19:56:48.907Z,24.20
2017-07-17T19:59:15.817Z,24.10
2017-07-17T20:01:42.768Z,24.10
2017-07-17T20:04:09.777Z,24.00
2017-07-17T20:06:36.794Z,23.90
2017-07-17T20:09:03.851Z,23.90
2017-07-17T20:11:30.781Z,23.90
2017-07-17T20:13:57.615Z,23.70
2017-07-17T20:16:24.449Z,23.70
2017-07-17T20:18:51.364Z,23.60
2017-07-17T20:21:18.216Z,23.50
2017-07-17T20:23:45.167Z,23.60
2017-07-17T20:26:12.215Z,23.60
2017-07-17T20:28:39.175Z,23.50
2017-07-17T20:31:06.194Z,23.50
2017-07-17T20:33:33.136Z,23.40
2017-07-17T20:35:59.983Z,23.40
2017-07-17T20:38:26.805Z,23.20
2017-07-17T20:40:54.468Z,23.10
2017-07-17T20:43:22.060Z,23.20
2017-07-17T20:45:48.999Z,23.10
2017-07-17T20:48:16.035Z,23.10
2017-07-17T20:50:42.997Z,23.10
2017-07-17T20:53:10.028Z,23.00
2017-07-17T20:55:37.604Z,22.90
2017-07-17T20:58:04.449Z,22.80
2017-07-17T21:00:31.358Z,22.90
2017-07-17T21:02:58.204Z,22.90
2017-07-17T21:05:29.123Z,22.80
2017-07-17T21:07:56.323Z,22.70
2017-07-17T21:10:23.322Z,22.70
2017-07-17T21:12:50.364Z,22.70
2017-07-17T21:15:17.310Z,22.70
2017-07-17T21:17:44.148Z,22.60
2017-07-17T21:20:11.045Z,22.50
2017-07-17T21:22:37.968Z,22.60
2017-07-17T21:25:04.805Z,22.50
2017-07-17T21:27:31.743Z,22.50
2017-07-17T21:29:58.568Z,22.40
2017-07-17T21:32:25.384Z,22.50
2017-07-17T21:34:52.414Z,22.40
2017-07-17T21:37:19.408Z,22.30
2017-07-17T21:39:46.426Z,22.50
2017-07-17T21:42:13.325Z,22.40
2017-07-17T21:44:40.173Z,22.40
2017-07-17T21:47:07.820Z,22.30
2017-07-17T21:49:34.716Z,22.30
2017-07-17T21:52:01.623Z,22.30
2017-07-17T21:54:28.523Z,22.30
2017-07-17T21:56:55.361Z,22.30
2017-07-17T21:59:22.181Z,22.30
2017-07-17T22:01:49.839Z,22.20
2017-07-17T22:04:17.415Z,22.10
2017-07-17T22:06:44.316Z,22.10
2017-07-17T22:09:11.215Z,22.00
2017-07-17T22:11:38.197Z,22.00
2017-07-17T22:14:05.039Z,22.00
2017-07-17T22:16:31.873Z,21.90
2017-07-17T22:18:59.128Z,21.90
2017-07-17T22:21:25.959Z,21.90
2017-07-17T22:23:52.851Z,21.80
2017-07-17T22:26:20.521Z,21.80
2017-07-17T22:28:47.371Z,21.80
2017-07-17T22:31:14.960Z,21.80
2017-07-17T22:33:41.901Z,21.70
2017-07-17T22:36:08.737Z,21.70
2017-07-17T22:38:35.585Z,21.60
2017-07-17T22:41:02.490Z,21.60
2017-07-17T22:43:30.396Z,21.60
2017-07-17T22:45:57.247Z,21.50
2017-07-17T22:48:25.346Z,21.50
2017-07-17T22:50:52.266Z,21.40
2017-07-17T22:53:19.963Z,21.50
2017-07-17T22:55:46.872Z,21.40
2017-07-17T22:58:14.449Z,21.40
2017-07-17T23:00:41.349Z,21.30
2017-07-17T23:03:08.271Z,21.30
2017-07-17T23:05:35.179Z,21.20
2017-07-17T23:08:04.720Z,21.20
2017-07-17T23:10:31.630Z,21.10
2017-07-17T23:12:58.456Z,21.10
2017-07-17T23:15:26.016Z,21.00
2017-07-17T23:17:53.053Z,21.00
2017-07-17T23:20:20.617Z,21.00
2017-07-17T23:22:48.186Z,20.90
2017-07-17T23:25:15.143Z,20.90
2017-07-17T23:27:42.611Z,20.90
2017-07-17T23:30:09.517Z,20.80
2017-07-17T23:32:36.334Z,20.90
2017-07-17T23:35:03.246Z,20.90
2017-07-17T23:37:30.072Z,20.90
2017-07-17T23:39:58.039Z,20.80
2017-07-17T23:42:25.673Z,20.90
2017-07-17T23:44:53.294Z,20.90
2017-07-17T23:47:27.078Z,20.90
2017-07-17T23:49:54.734Z,20.80
2017-07-17T23:52:22.309Z,20.90
2017-07-17T23:54:49.195Z,20.80
2017-07-17T23:57:16.036Z,20.80
2017-07-17T23:59:42.939Z,20.80
